createdAt,value
2023-03-23T16:03:01.998Z,16.60
2023-03-23T16:08:23.899Z,16.65
2023-03-23T16:13:45.925Z,16.57
2023-03-23T16:19:11.094Z,16.50
2023-03-23T16:24:32.786Z,16.55
2023-03-23T16:30:04.020Z,16.47
2023-03-23T16:35:26.257Z,16.47
2023-03-23T16:40:47.934Z,16.40
2023-03-23T16:46:12.049Z,16.34
2023-03-23T16:51:33.827Z,16.33
2023-03-23T16:56:55.618Z,16.30
2023-03-23T17:02:17.507Z,16.27
2023-03-23T17:07:40.826Z,16.21
2023-03-23T17:13:02.534Z,16.19
2023-03-23T17:18:25.286Z,16.13
2023-03-23T17:23:46.998Z,16.14
2023-03-23T17:29:09.000Z,16.08
2023-03-23T17:34:31.176Z,16.04
2023-03-23T17:39:52.974Z,16.03
2023-03-23T17:45:14.671Z,16.06
2023-03-23T17:50:36.487Z,16.05
2023-03-23T17:55:59.246Z,16.03
2023-03-23T18:01:21.099Z,15.95
2023-03-23T18:06:43.452Z,15.92
2023-03-23T18:12:05.609Z,15.85
2023-03-23T18:17:27.432Z,15.81
2023-03-23T18:22:49.364Z,15.87
2023-03-23T18:28:11.207Z,15.88
2023-03-23T18:33:34.345Z,15.87
2023-03-23T18:38:57.353Z,15.74
2023-03-23T18:44:19.056Z,15.83
2023-03-23T18:49:41.010Z,15.83
2023-03-23T18:55:02.980Z,15.73
2023-03-23T19:00:24.781Z,15.72
2023-03-23T19:05:46.923Z,15.69
2023-03-23T19:11:09.135Z,15.74
2023-03-23T19:16:35.365Z,15.76
2023-03-23T19:21:57.133Z,15.69
2023-03-23T19:27:20.991Z,15.76
2023-03-23T19:32:43.023Z,15.76
2023-03-23T19:38:04.962Z,15.72
2023-03-23T19:43:27.673Z,15.73
2023-03-23T19:48:50.289Z,15.66
2023-03-23T19:54:13.019Z,15.57
2023-03-23T19:59:35.362Z,15.50
2023-03-23T20:04:57.351Z,15.50
2023-03-23T20:10:23.065Z,15.50
2023-03-23T20:15:51.304Z,15.40
2023-03-23T20:21:18.901Z,15.47
2023-03-23T20:26:43.638Z,15.39
2023-03-23T20:32:07.382Z,15.38
2023-03-23T20:37:31.180Z,15.37
2023-03-23T20:42:54.487Z,15.34
2023-03-23T20:48:16.789Z,15.29
2023-03-23T20:53:39.543Z,15.24
2023-03-23T20:59:02.409Z,15.23
2023-03-23T21:04:27.334Z,15.12
2023-03-23T21:09:49.734Z,15.09
2023-03-23T21:15:12.467Z,15.05
2023-03-23T21:20:34.996Z,15.07
2023-03-23T21:26:02.343Z,15.06
2023-03-23T21:31:25.408Z,15.02
2023-03-23T21:36:47.149Z,15.04
2023-03-23T21:42:09.020Z,14.96
2023-03-23T21:47:31.009Z,14.94
2023-03-23T21:52:53.910Z,14.97
2023-03-23T21:58:16.076Z,14.91
2023-03-23T22:03:38.882Z,14.94
2023-03-23T22:09:02.192Z,14.95
2023-03-23T22:14:24.149Z,14.91
2023-03-23T22:19:45.998Z,14.88
2023-03-23T22:25:08.567Z,14.81
2023-03-23T22:30:32.887Z,14.72
2023-03-23T22:35:54.601Z,14.69
2023-03-23T22:41:23.087Z,14.72
2023-03-23T22:46:45.790Z,14.71
2023-03-23T22:52:07.485Z,14.65
2023-03-23T22:57:30.554Z,14.63
2023-03-23T23:02:52.299Z,14.61
2023-03-23T23:08:16.621Z,14.60
2023-03-23T23:13:40.956Z,14.56
2023-03-23T23:19:03.128Z,14.53
2023-03-23T23:24:26.456Z,14.48
2023-03-23T23:29:48.229Z,14.44
2023-03-23T23:35:13.406Z,14.47
2023-03-23T23:40:35.352Z,14.52
2023-03-23T23:45:57.219Z,14.42
2023-03-23T23:51:19.385Z,14.21
2023-03-23T23:56:41.291Z,14.23
